sensor_id;sensor_type;location;lat;lon;timestamp;P1;durP1;ratioP1;P2;durP2;ratioP2
10134;SDS011;5107;48.850;8.924;2023-05-17T00:02:36;4.03;;;1.60;;
10134;SDS011;5107;48.850;8.924;2023-05-17T00:05:09;5.17;;;1.60;;
10134;SDS011;5107;48.850;8.924;2023-05-17T00:07:48;1.90;;;1.40;;
10134;SDS011;5107;48.850;8.924;2023-05-17T00:13:27;3.47;;;1.70;;
10134;SDS011;5107;48.850;8.924;2023-05-17T00:16:05;5.33;;;1.50;;
10134;SDS011;5107;48.850;8.924;2023-05-17T00:18:43;5.03;;;2.07;;
10134;SDS011;5107;48.850;8.924;2023-05-17T00:21:19;2.77;;;1.50;;
10134;SDS011;5107;48.850;8.924;2023-05-17T00:23:52;3.17;;;1.60;;
10134;SDS011;5107;48.850;8.924;2023-05-17T00:26:18;4.67;;;1.63;;
10134;SDS011;5107;48.850;8.924;2023-05-17T00:28:53;4.83;;;1.73;;
10134;SDS011;5107;48.850;8.924;2023-05-17T00:31:48;3.93;;;1.40;;
10134;SDS011;5107;48.850;8.924;2023-05-17T00:34:21;2.17;;;1.40;;
10134;SDS011;5107;48.850;8.924;2023-05-17T00:36:47;2.80;;;1.57;;
10134;SDS011;5107;48.850;8.924;2023-05-17T00:39:13;2.67;;;1.43;;
10134;SDS011;5107;48.850;8.924;2023-05-17T00:42:01;4.57;;;1.80;;
10134;SDS011;5107;48.850;8.924;2023-05-17T00:44:40;2.73;;;1.40;;
10134;SDS011;5107;48.850;8.924;2023-05-17T00:47:08;2.70;;;1.53;;
10134;SDS011;5107;48.850;8.924;2023-05-17T00:49:37;4.20;;;1.50;;
10134;SDS011;5107;48.850;8.924;2023-05-17T00:52:18;2.80;;;1.60;;
10134;SDS011;5107;48.850;8.924;2023-05-17T00:54:47;3.83;;;1.73;;
10134;SDS011;5107;48.850;8.924;2023-05-17T00:57:22;4.93;;;2.07;;
10134;SDS011;5107;48.850;8.924;2023-05-17T00:59:53;2.47;;;1.80;;
10134;SDS011;5107;48.850;8.924;2023-05-17T01:02:22;1.77;;;1.40;;
10134;SDS011;5107;48.850;8.924;2023-05-17T01:04:51;5.00;;;2.00;;
10134;SDS011;5107;48.850;8.924;2023-05-17T01:07:17;4.03;;;1.47;;
10134;SDS011;5107;48.850;8.924;2023-05-17T01:09:49;3.60;;;1.53;;
10134;SDS011;5107;48.850;8.924;2023-05-17T01:15:14;2.63;;;1.40;;
10134;SDS011;5107;48.850;8.924;2023-05-17T01:20:44;4.63;;;1.80;;
10134;SDS011;5107;48.850;8.924;2023-05-17T01:26:09;3.37;;;1.70;;
10134;SDS011;5107;48.850;8.924;2023-05-17T01:28:48;4.50;;;2.00;;
10134;SDS011;5107;48.850;8.924;2023-05-17T01:31:21;3.63;;;1.80;;
10134;SDS011;5107;48.850;8.924;2023-05-17T01:34:08;2.40;;;1.63;;
10134;SDS011;5107;48.850;8.924;2023-05-17T01:36:37;3.77;;;1.80;;
10134;SDS011;5107;48.850;8.924;2023-05-17T01:39:14;3.87;;;1.40;;
10134;SDS011;5107;48.850;8.924;2023-05-17T01:41:49;5.93;;;1.57;;
10134;SDS011;5107;48.850;8.924;2023-05-17T01:47:26;3.77;;;1.40;;
10134;SDS011;5107;48.850;8.924;2023-05-17T01:50:18;4.17;;;1.60;;
10134;SDS011;5107;48.850;8.924;2023-05-17T01:52:52;3.50;;;1.67;;
10134;SDS011;5107;48.850;8.924;2023-05-17T01:58:20;6.60;;;1.90;;
10134;SDS011;5107;48.850;8.924;2023-05-17T02:00:55;3.20;;;1.67;;
10134;SDS011;5107;48.850;8.924;2023-05-17T02:03:33;1.70;;;1.50;;
10134;SDS011;5107;48.850;8.924;2023-05-17T02:06:01;4.00;;;1.60;;
10134;SDS011;5107;48.850;8.924;2023-05-17T02:08:35;4.13;;;2.00;;
10134;SDS011;5107;48.850;8.924;2023-05-17T02:11:06;4.37;;;1.60;;
10134;SDS011;5107;48.850;8.924;2023-05-17T02:13:31;2.70;;;1.70;;
10134;SDS011;5107;48.850;8.924;2023-05-17T02:16:04;6.37;;;2.10;;
10134;SDS011;5107;48.850;8.924;2023-05-17T02:18:36;4.40;;;1.63;;
10134;SDS011;5107;48.850;8.924;2023-05-17T02:21:09;3.73;;;1.53;;
10134;SDS011;5107;48.850;8.924;2023-05-17T02:23:38;6.50;;;1.90;;
10134;SDS011;5107;48.850;8.924;2023-05-17T02:26:13;4.03;;;1.50;;
10134;SDS011;5107;48.850;8.924;2023-05-17T02:28:44;2.57;;;1.53;;
10134;SDS011;5107;48.850;8.924;2023-05-17T02:31:13;3.40;;;1.50;;
10134;SDS011;5107;48.850;8.924;2023-05-17T02:33:53;4.03;;;1.60;;
10134;SDS011;5107;48.850;8.924;2023-05-17T02:36:19;2.03;;;1.50;;
10134;SDS011;5107;48.850;8.924;2023-05-17T02:38:50;3.70;;;1.80;;
10134;SDS011;5107;48.850;8.924;2023-05-17T02:41:20;2.30;;;1.60;;
10134;SDS011;5107;48.850;8.924;2023-05-17T02:43:52;5.93;;;1.80;;
10134;SDS011;5107;48.850;8.924;2023-05-17T02:46:20;5.07;;;1.80;;
10134;SDS011;5107;48.850;8.924;2023-05-17T02:48:48;4.03;;;1.77;;
10134;SDS011;5107;48.850;8.924;2023-05-17T02:51:17;4.07;;;2.17;;
10134;SDS011;5107;48.850;8.924;2023-05-17T02:53:43;3.33;;;1.97;;
10134;SDS011;5107;48.850;8.924;2023-05-17T02:56:37;4.00;;;2.10;;
10134;SDS011;5107;48.850;8.924;2023-05-17T02:59:24;4.80;;;2.00;;
10134;SDS011;5107;48.850;8.924;2023-05-17T03:01:50;4.70;;;1.70;;
10134;SDS011;5107;48.850;8.924;2023-05-17T03:04:16;3.40;;;1.60;;
10134;SDS011;5107;48.850;8.924;2023-05-17T03:06:46;4.63;;;1.60;;
10134;SDS011;5107;48.850;8.924;2023-05-17T03:09:15;5.43;;;1.90;;
10134;SDS011;5107;48.850;8.924;2023-05-17T03:11:43;3.80;;;1.70;;
10134;SDS011;5107;48.850;8.924;2023-05-17T03:14:17;3.90;;;1.63;;
10134;SDS011;5107;48.850;8.924;2023-05-17T03:16:45;3.87;;;2.00;;
10134;SDS011;5107;48.850;8.924;2023-05-17T03:19:11;5.43;;;1.87;;
10134;SDS011;5107;48.850;8.924;2023-05-17T03:21:40;3.03;;;1.73;;
10134;SDS011;5107;48.850;8.924;2023-05-17T03:24:06;3.43;;;1.37;;
10134;SDS011;5107;48.850;8.924;2023-05-17T03:26:45;3.17;;;1.93;;
10134;SDS011;5107;48.850;8.924;2023-05-17T03:29:24;6.20;;;2.03;;
10134;SDS011;5107;48.850;8.924;2023-05-17T03:31:55;3.67;;;1.67;;
10134;SDS011;5107;48.850;8.924;2023-05-17T03:34:26;5.57;;;2.00;;
10134;SDS011;5107;48.850;8.924;2023-05-17T03:36:55;3.83;;;1.80;;
10134;SDS011;5107;48.850;8.924;2023-05-17T03:39:25;4.27;;;1.57;;
10134;SDS011;5107;48.850;8.924;2023-05-17T03:41:53;3.13;;;1.90;;
10134;SDS011;5107;48.850;8.924;2023-05-17T03:44:19;3.77;;;1.57;;
10134;SDS011;5107;48.850;8.924;2023-05-17T03:46:47;3.43;;;1.97;;
10134;SDS011;5107;48.850;8.924;2023-05-17T03:49:14;3.40;;;1.90;;
10134;SDS011;5107;48.850;8.924;2023-05-17T03:51:43;2.80;;;1.90;;
10134;SDS011;5107;48.850;8.924;2023-05-17T03:54:12;3.23;;;1.80;;
10134;SDS011;5107;48.850;8.924;2023-05-17T03:56:41;6.27;;;2.20;;
10134;SDS011;5107;48.850;8.924;2023-05-17T03:59:13;4.50;;;2.00;;
10134;SDS011;5107;48.850;8.924;2023-05-17T04:01:42;4.00;;;1.87;;
10134;SDS011;5107;48.850;8.924;2023-05-17T04:04:11;5.17;;;2.33;;
10134;SDS011;5107;48.850;8.924;2023-05-17T04:06:40;5.53;;;2.20;;
10134;SDS011;5107;48.850;8.924;2023-05-17T04:09:06;4.83;;;2.40;;
10134;SDS011;5107;48.850;8.924;2023-05-17T04:11:34;3.10;;;1.80;;
10134;SDS011;5107;48.850;8.924;2023-05-17T04:14:02;2.47;;;1.83;;
10134;SDS011;5107;48.850;8.924;2023-05-17T04:16:30;4.20;;;1.80;;
10134;SDS011;5107;48.850;8.924;2023-05-17T04:18:56;5.47;;;2.20;;
10134;SDS011;5107;48.850;8.924;2023-05-17T04:21:23;4.53;;;2.10;;
10134;SDS011;5107;48.850;8.924;2023-05-17T04:23:49;5.47;;;2.07;;
10134;SDS011;5107;48.850;8.924;2023-05-17T04:26:18;6.47;;;2.07;;
10134;SDS011;5107;48.850;8.924;2023-05-17T04:28:55;3.13;;;1.80;;
10134;SDS011;5107;48.850;8.924;2023-05-17T04:31:25;5.13;;;2.40;;
10134;SDS011;5107;48.850;8.924;2023-05-17T04:33:54;4.97;;;2.30;;
10134;SDS011;5107;48.850;8.924;2023-05-17T04:36:20;5.10;;;2.10;;
10134;SDS011;5107;48.850;8.924;2023-05-17T04:38:49;4.27;;;2.00;;
10134;SDS011;5107;48.850;8.924;2023-05-17T04:41:15;5.87;;;2.27;;
10134;SDS011;5107;48.850;8.924;2023-05-17T04:43:40;2.77;;;1.97;;
10134;SDS011;5107;48.850;8.924;2023-05-17T04:46:06;4.97;;;2.00;;
10134;SDS011;5107;48.850;8.924;2023-05-17T04:48:37;5.60;;;2.07;;
10134;SDS011;5107;48.850;8.924;2023-05-17T04:51:08;3.10;;;2.17;;
10134;SDS011;5107;48.850;8.924;2023-05-17T04:53:36;6.73;;;2.00;;
10134;SDS011;5107;48.850;8.924;2023-05-17T04:56:10;4.87;;;2.00;;
10134;SDS011;5107;48.850;8.924;2023-05-17T04:58:36;4.00;;;2.17;;
10134;SDS011;5107;48.850;8.924;2023-05-17T05:01:01;2.80;;;1.80;;
10134;SDS011;5107;48.850;8.924;2023-05-17T05:03:27;3.73;;;1.90;;
10134;SDS011;5107;48.850;8.924;2023-05-17T05:05:55;3.60;;;1.93;;
10134;SDS011;5107;48.850;8.924;2023-05-17T05:08:21;4.47;;;2.03;;
10134;SDS011;5107;48.850;8.924;2023-05-17T05:10:52;3.50;;;1.70;;
10134;SDS011;5107;48.850;8.924;2023-05-17T05:13:17;3.17;;;1.70;;
10134;SDS011;5107;48.850;8.924;2023-05-17T05:15:47;5.50;;;1.80;;
10134;SDS011;5107;48.850;8.924;2023-05-17T05:18:15;2.83;;;1.63;;
10134;SDS011;5107;48.850;8.924;2023-05-17T05:20:43;5.70;;;2.30;;
10134;SDS011;5107;48.850;8.924;2023-05-17T05:23:12;4.97;;;2.00;;
10134;SDS011;5107;48.850;8.924;2023-05-17T05:25:42;3.37;;;1.83;;
10134;SDS011;5107;48.850;8.924;2023-05-17T05:28:12;5.57;;;1.90;;
10134;SDS011;5107;48.850;8.924;2023-05-17T05:30:41;3.00;;;1.83;;
10134;SDS011;5107;48.850;8.924;2023-05-17T05:33:06;5.70;;;2.10;;
10134;SDS011;5107;48.850;8.924;2023-05-17T05:35:32;3.53;;;1.90;;
10134;SDS011;5107;48.850;8.924;2023-05-17T05:37:58;3.27;;;1.60;;
10134;SDS011;5107;48.850;8.924;2023-05-17T05:40:26;3.57;;;2.00;;
10134;SDS011;5107;48.850;8.924;2023-05-17T05:42:52;3.87;;;2.03;;
10134;SDS011;5107;48.850;8.924;2023-05-17T05:45:20;2.83;;;2.23;;
10134;SDS011;5107;48.850;8.924;2023-05-17T05:47:48;3.43;;;1.80;;
10134;SDS011;5107;48.850;8.924;2023-05-17T05:50:14;3.97;;;2.50;;
10134;SDS011;5107;48.850;8.924;2023-05-17T05:52:42;3.90;;;2.30;;
10134;SDS011;5107;48.850;8.924;2023-05-17T05:55:10;4.00;;;1.90;;
10134;SDS011;5107;48.850;8.924;2023-05-17T05:57:39;5.00;;;2.00;;
10134;SDS011;5107;48.850;8.924;2023-05-17T06:00:08;3.83;;;2.07;;
10134;SDS011;5107;48.850;8.924;2023-05-17T06:02:36;5.97;;;2.70;;
10134;SDS011;5107;48.850;8.924;2023-05-17T06:05:02;4.63;;;2.67;;
10134;SDS011;5107;48.850;8.924;2023-05-17T06:07:27;4.80;;;2.60;;
10134;SDS011;5107;48.850;8.924;2023-05-17T06:09:53;32.90;;;14.67;;
10134;SDS011;5107;48.850;8.924;2023-05-17T06:12:24;10.23;;;5.30;;
10134;SDS011;5107;48.850;8.924;2023-05-17T06:14:53;6.57;;;3.63;;
10134;SDS011;5107;48.850;8.924;2023-05-17T06:17:19;14.30;;;5.93;;
10134;SDS011;5107;48.850;8.924;2023-05-17T06:19:47;15.70;;;6.90;;
10134;SDS011;5107;48.850;8.924;2023-05-17T06:22:16;15.40;;;6.73;;
10134;SDS011;5107;48.850;8.924;2023-05-17T06:24:41;9.10;;;4.27;;
10134;SDS011;5107;48.850;8.924;2023-05-17T06:27:07;14.57;;;6.07;;
10134;SDS011;5107;48.850;8.924;2023-05-17T06:29:32;16.43;;;6.67;;
10134;SDS011;5107;48.850;8.924;2023-05-17T06:31:58;13.70;;;6.13;;
10134;SDS011;5107;48.850;8.924;2023-05-17T06:34:24;9.20;;;3.13;;
10134;SDS011;5107;48.850;8.924;2023-05-17T06:36:50;5.47;;;2.50;;
10134;SDS011;5107;48.850;8.924;2023-05-17T06:39:15;12.53;;;6.70;;
10134;SDS011;5107;48.850;8.924;2023-05-17T06:41:41;18.40;;;10.73;;
10134;SDS011;5107;48.850;8.924;2023-05-17T06:44:06;8.13;;;4.00;;
10134;SDS011;5107;48.850;8.924;2023-05-17T06:46:32;24.77;;;13.93;;
10134;SDS011;5107;48.850;8.924;2023-05-17T06:48:57;14.63;;;7.67;;
10134;SDS011;5107;48.850;8.924;2023-05-17T06:51:22;6.40;;;3.90;;
10134;SDS011;5107;48.850;8.924;2023-05-17T06:53:48;11.87;;;6.30;;
10134;SDS011;5107;48.850;8.924;2023-05-17T06:56:14;10.80;;;7.87;;
10134;SDS011;5107;48.850;8.924;2023-05-17T06:58:40;6.23;;;3.27;;
10134;SDS011;5107;48.850;8.924;2023-05-17T07:01:05;6.83;;;3.20;;
10134;SDS011;5107;48.850;8.924;2023-05-17T07:03:31;6.03;;;4.07;;
10134;SDS011;5107;48.850;8.924;2023-05-17T07:05:56;5.67;;;3.60;;
10134;SDS011;5107;48.850;8.924;2023-05-17T07:08:21;8.87;;;4.33;;
10134;SDS011;5107;48.850;8.924;2023-05-17T07:10:49;5.60;;;3.20;;
10134;SDS011;5107;48.850;8.924;2023-05-17T07:13:16;5.40;;;3.50;;
10134;SDS011;5107;48.850;8.924;2023-05-17T07:15:41;5.30;;;2.87;;
10134;SDS011;5107;48.850;8.924;2023-05-17T07:18:07;7.47;;;3.17;;
10134;SDS011;5107;48.850;8.924;2023-05-17T07:20:32;6.23;;;3.70;;
10134;SDS011;5107;48.850;8.924;2023-05-17T07:22:58;7.10;;;3.10;;
10134;SDS011;5107;48.850;8.924;2023-05-17T07:25:23;5.47;;;3.17;;
10134;SDS011;5107;48.850;8.924;2023-05-17T07:27:48;6.90;;;3.43;;
10134;SDS011;5107;48.850;8.924;2023-05-17T07:30:14;5.43;;;3.53;;
10134;SDS011;5107;48.850;8.924;2023-05-17T07:32:39;6.30;;;2.80;;
10134;SDS011;5107;48.850;8.924;2023-05-17T07:35:04;6.07;;;3.23;;
10134;SDS011;5107;48.850;8.924;2023-05-17T07:37:30;7.20;;;3.17;;
10134;SDS011;5107;48.850;8.924;2023-05-17T07:39:55;5.93;;;3.00;;
10134;SDS011;5107;48.850;8.924;2023-05-17T07:42:21;6.73;;;3.27;;
10134;SDS011;5107;48.850;8.924;2023-05-17T07:44:46;8.10;;;3.17;;
10134;SDS011;5107;48.850;8.924;2023-05-17T07:47:13;5.37;;;3.10;;
10134;SDS011;5107;48.850;8.924;2023-05-17T07:49:39;5.17;;;3.00;;
10134;SDS011;5107;48.850;8.924;2023-05-17T07:52:05;4.63;;;2.83;;
10134;SDS011;5107;48.850;8.924;2023-05-17T07:54:30;6.57;;;3.10;;
10134;SDS011;5107;48.850;8.924;2023-05-17T07:56:56;7.63;;;3.00;;
10134;SDS011;5107;48.850;8.924;2023-05-17T07:59:21;5.83;;;3.40;;
10134;SDS011;5107;48.850;8.924;2023-05-17T08:01:47;5.23;;;3.20;;
10134;SDS011;5107;48.850;8.924;2023-05-17T08:04:13;8.37;;;3.30;;
10134;SDS011;5107;48.850;8.924;2023-05-17T08:06:38;6.27;;;3.57;;
10134;SDS011;5107;48.850;8.924;2023-05-17T08:09:05;5.77;;;3.43;;
10134;SDS011;5107;48.850;8.924;2023-05-17T08:11:30;5.80;;;3.20;;
10134;SDS011;5107;48.850;8.924;2023-05-17T08:13:58;5.83;;;3.30;;
10134;SDS011;5107;48.850;8.924;2023-05-17T08:16:23;5.73;;;3.60;;
10134;SDS011;5107;48.850;8.924;2023-05-17T08:18:49;7.40;;;3.20;;
10134;SDS011;5107;48.850;8.924;2023-05-17T08:21:14;7.30;;;3.63;;
10134;SDS011;5107;48.850;8.924;2023-05-17T08:23:40;5.70;;;3.33;;
10134;SDS011;5107;48.850;8.924;2023-05-17T08:26:05;6.23;;;3.60;;
10134;SDS011;5107;48.850;8.924;2023-05-17T08:28:31;5.57;;;2.97;;
10134;SDS011;5107;48.850;8.924;2023-05-17T08:30:56;5.23;;;3.00;;
10134;SDS011;5107;48.850;8.924;2023-05-17T08:33:22;4.77;;;2.73;;
10134;SDS011;5107;48.850;8.924;2023-05-17T08:35:49;6.23;;;3.37;;
10134;SDS011;5107;48.850;8.924;2023-05-17T08:38:16;5.23;;;2.83;;
10134;SDS011;5107;48.850;8.924;2023-05-17T08:40:42;5.40;;;2.90;;
10134;SDS011;5107;48.850;8.924;2023-05-17T08:43:08;6.57;;;3.20;;
10134;SDS011;5107;48.850;8.924;2023-05-17T08:45:37;3.77;;;2.90;;
10134;SDS011;5107;48.850;8.924;2023-05-17T08:48:02;5.47;;;3.20;;
10134;SDS011;5107;48.850;8.924;2023-05-17T08:50:29;3.83;;;3.00;;
10134;SDS011;5107;48.850;8.924;2023-05-17T08:52:55;6.47;;;3.07;;
10134;SDS011;5107;48.850;8.924;2023-05-17T08:55:22;6.53;;;3.27;;
10134;SDS011;5107;48.850;8.924;2023-05-17T08:57:49;5.03;;;3.03;;
10134;SDS011;5107;48.850;8.924;2023-05-17T09:00:15;5.57;;;2.90;;
10134;SDS011;5107;48.850;8.924;2023-05-17T09:02:45;5.13;;;2.80;;
10134;SDS011;5107;48.850;8.924;2023-05-17T09:05:11;4.50;;;2.93;;
10134;SDS011;5107;48.850;8.924;2023-05-17T09:07:37;7.67;;;3.10;;
10134;SDS011;5107;48.850;8.924;2023-05-17T09:10:03;4.60;;;3.07;;
10134;SDS011;5107;48.850;8.924;2023-05-17T09:12:30;7.73;;;2.83;;
10134;SDS011;5107;48.850;8.924;2023-05-17T09:15:17;5.77;;;3.07;;
10134;SDS011;5107;48.850;8.924;2023-05-17T09:17:50;5.93;;;3.37;;
10134;SDS011;5107;48.850;8.924;2023-05-17T09:20:23;7.03;;;3.57;;
10134;SDS011;5107;48.850;8.924;2023-05-17T09:22:58;7.40;;;3.10;;
10134;SDS011;5107;48.850;8.924;2023-05-17T09:25:28;6.77;;;3.70;;
10134;SDS011;5107;48.850;8.924;2023-05-17T09:27:59;6.17;;;3.40;;
10134;SDS011;5107;48.850;8.924;2023-05-17T09:30:26;6.97;;;3.67;;
10134;SDS011;5107;48.850;8.924;2023-05-17T09:32:53;6.27;;;3.60;;
10134;SDS011;5107;48.850;8.924;2023-05-17T09:35:25;6.23;;;3.50;;
10134;SDS011;5107;48.850;8.924;2023-05-17T09:37:56;4.80;;;3.37;;
10134;SDS011;5107;48.850;8.924;2023-05-17T09:40:28;5.90;;;3.63;;
10134;SDS011;5107;48.850;8.924;2023-05-17T09:42:53;6.90;;;3.43;;
10134;SDS011;5107;48.850;8.924;2023-05-17T09:45:22;7.37;;;3.40;;
10134;SDS011;5107;48.850;8.924;2023-05-17T09:47:48;7.10;;;3.50;;
10134;SDS011;5107;48.850;8.924;2023-05-17T09:50:18;7.27;;;3.27;;
10134;SDS011;5107;48.850;8.924;2023-05-17T09:52:44;5.30;;;3.30;;
10134;SDS011;5107;48.850;8.924;2023-05-17T09:55:10;7.30;;;3.47;;
10134;SDS011;5107;48.850;8.924;2023-05-17T09:57:36;7.90;;;4.13;;
10134;SDS011;5107;48.850;8.924;2023-05-17T10:00:03;7.43;;;3.60;;
10134;SDS011;5107;48.850;8.924;2023-05-17T10:02:35;14.10;;;5.77;;
10134;SDS011;5107;48.850;8.924;2023-05-17T10:05:02;6.50;;;3.77;;
10134;SDS011;5107;48.850;8.924;2023-05-17T10:07:29;5.77;;;3.63;;
10134;SDS011;5107;48.850;8.924;2023-05-17T10:09:56;6.87;;;3.60;;
10134;SDS011;5107;48.850;8.924;2023-05-17T10:12:22;5.73;;;3.47;;
10134;SDS011;5107;48.850;8.924;2023-05-17T10:14:49;6.17;;;3.53;;
10134;SDS011;5107;48.850;8.924;2023-05-17T10:17:19;4.93;;;3.10;;
10134;SDS011;5107;48.850;8.924;2023-05-17T10:19:45;6.77;;;4.17;;
10134;SDS011;5107;48.850;8.924;2023-05-17T10:22:11;5.70;;;3.63;;
10134;SDS011;5107;48.850;8.924;2023-05-17T10:24:37;7.33;;;3.87;;
10134;SDS011;5107;48.850;8.924;2023-05-17T10:27:04;5.73;;;3.40;;
10134;SDS011;5107;48.850;8.924;2023-05-17T10:29:32;5.77;;;3.70;;
10134;SDS011;5107;48.850;8.924;2023-05-17T10:31:58;7.47;;;3.60;;
10134;SDS011;5107;48.850;8.924;2023-05-17T10:34:29;6.87;;;3.70;;
10134;SDS011;5107;48.850;8.924;2023-05-17T10:36:55;5.70;;;4.00;;
10134;SDS011;5107;48.850;8.924;2023-05-17T10:39:21;7.23;;;4.00;;
10134;SDS011;5107;48.850;8.924;2023-05-17T10:41:49;4.93;;;3.60;;
10134;SDS011;5107;48.850;8.924;2023-05-17T10:44:16;7.77;;;3.67;;
10134;SDS011;5107;48.850;8.924;2023-05-17T10:46:53;8.33;;;3.63;;
10134;SDS011;5107;48.850;8.924;2023-05-17T10:49:21;5.67;;;3.30;;
10134;SDS011;5107;48.850;8.924;2023-05-17T10:51:48;5.47;;;3.50;;
10134;SDS011;5107;48.850;8.924;2023-05-17T10:54:15;5.23;;;3.40;;
10134;SDS011;5107;48.850;8.924;2023-05-17T11:04:22;8.40;;;4.63;;
10134;SDS011;5107;48.850;8.924;2023-05-17T11:12:40;5.97;;;3.20;;
10134;SDS011;5107;48.850;8.924;2023-05-17T11:15:08;5.80;;;3.07;;
10134;SDS011;5107;48.850;8.924;2023-05-17T11:22:40;6.27;;;3.37;;
10134;SDS011;5107;48.850;8.924;2023-05-17T11:25:14;4.47;;;3.07;;
10134;SDS011;5107;48.850;8.924;2023-05-17T11:27:44;7.57;;;3.10;;
10134;SDS011;5107;48.850;8.924;2023-05-17T11:32:53;3.07;;;2.70;;
10134;SDS011;5107;48.850;8.924;2023-05-17T11:35:23;6.70;;;2.97;;
10134;SDS011;5107;48.850;8.924;2023-05-17T11:37:52;6.13;;;2.70;;
10134;SDS011;5107;48.850;8.924;2023-05-17T11:40:24;3.53;;;2.73;;
10134;SDS011;5107;48.850;8.924;2023-05-17T11:43:12;6.40;;;3.13;;
10134;SDS011;5107;48.850;8.924;2023-05-17T11:45:48;4.77;;;2.70;;
10134;SDS011;5107;48.850;8.924;2023-05-17T11:48:16;5.97;;;3.03;;
10134;SDS011;5107;48.850;8.924;2023-05-17T11:50:42;5.03;;;3.10;;
10134;SDS011;5107;48.850;8.924;2023-05-17T11:53:09;4.67;;;3.00;;
10134;SDS011;5107;48.850;8.924;2023-05-17T11:55:36;5.43;;;3.10;;
10134;SDS011;5107;48.850;8.924;2023-05-17T11:58:04;7.00;;;3.10;;
10134;SDS011;5107;48.850;8.924;2023-05-17T12:00:31;4.53;;;2.73;;
10134;SDS011;5107;48.850;8.924;2023-05-17T12:02:57;3.90;;;2.97;;
10134;SDS011;5107;48.850;8.924;2023-05-17T12:05:23;4.77;;;2.93;;
10134;SDS011;5107;48.850;8.924;2023-05-17T12:07:49;5.13;;;2.80;;
10134;SDS011;5107;48.850;8.924;2023-05-17T12:10:16;5.13;;;3.23;;
10134;SDS011;5107;48.850;8.924;2023-05-17T12:12:42;4.70;;;2.60;;
10134;SDS011;5107;48.850;8.924;2023-05-17T12:15:08;7.60;;;3.00;;
10134;SDS011;5107;48.850;8.924;2023-05-17T12:17:36;4.47;;;2.80;;
10134;SDS011;5107;48.850;8.924;2023-05-17T12:20:08;3.73;;;2.77;;
10134;SDS011;5107;48.850;8.924;2023-05-17T12:22:34;4.63;;;2.70;;
10134;SDS011;5107;48.850;8.924;2023-05-17T12:25:22;6.10;;;2.97;;
10134;SDS011;5107;48.850;8.924;2023-05-17T12:28:15;6.53;;;3.30;;
10134;SDS011;5107;48.850;8.924;2023-05-17T12:30:50;4.10;;;2.70;;
10134;SDS011;5107;48.850;8.924;2023-05-17T12:33:17;5.97;;;3.20;;
10134;SDS011;5107;48.850;8.924;2023-05-17T12:35:43;5.63;;;3.13;;
10134;SDS011;5107;48.850;8.924;2023-05-17T12:38:09;5.23;;;3.10;;
10134;SDS011;5107;48.850;8.924;2023-05-17T12:40:35;6.20;;;2.53;;
10134;SDS011;5107;48.850;8.924;2023-05-17T12:43:01;6.93;;;3.23;;
10134;SDS011;5107;48.850;8.924;2023-05-17T12:45:30;5.33;;;3.00;;
10134;SDS011;5107;48.850;8.924;2023-05-17T12:47:56;9.13;;;4.93;;
10134;SDS011;5107;48.850;8.924;2023-05-17T12:50:30;6.37;;;4.63;;
10134;SDS011;5107;48.850;8.924;2023-05-17T12:52:56;4.93;;;3.67;;
10134;SDS011;5107;48.850;8.924;2023-05-17T12:55:22;6.27;;;3.60;;
10134;SDS011;5107;48.850;8.924;2023-05-17T12:57:51;5.53;;;4.10;;
10134;SDS011;5107;48.850;8.924;2023-05-17T13:00:17;7.60;;;3.80;;
10134;SDS011;5107;48.850;8.924;2023-05-17T13:02:43;7.40;;;3.67;;
10134;SDS011;5107;48.850;8.924;2023-05-17T13:05:18;8.27;;;4.33;;
10134;SDS011;5107;48.850;8.924;2023-05-17T13:07:46;5.03;;;3.50;;
10134;SDS011;5107;48.850;8.924;2023-05-17T13:10:20;6.63;;;3.37;;
10134;SDS011;5107;48.850;8.924;2023-05-17T13:12:53;6.23;;;3.70;;
10134;SDS011;5107;48.850;8.924;2023-05-17T13:15:29;4.87;;;3.50;;
10134;SDS011;5107;48.850;8.924;2023-05-17T13:17:55;6.67;;;3.43;;
10134;SDS011;5107;48.850;8.924;2023-05-17T13:20:21;5.20;;;3.07;;
10134;SDS011;5107;48.850;8.924;2023-05-17T13:22:47;6.73;;;3.33;;
10134;SDS011;5107;48.850;8.924;2023-05-17T13:25:13;5.60;;;3.20;;
10134;SDS011;5107;48.850;8.924;2023-05-17T13:27:39;9.70;;;3.97;;
10134;SDS011;5107;48.850;8.924;2023-05-17T13:30:10;5.97;;;3.93;;
10134;SDS011;5107;48.850;8.924;2023-05-17T13:32:36;5.13;;;3.07;;
10134;SDS011;5107;48.850;8.924;2023-05-17T13:35:02;6.50;;;3.40;;
10134;SDS011;5107;48.850;8.924;2023-05-17T13:37:27;6.10;;;3.60;;
10134;SDS011;5107;48.850;8.924;2023-05-17T13:39:53;6.23;;;3.23;;
10134;SDS011;5107;48.850;8.924;2023-05-17T13:42:20;5.53;;;3.33;;
10134;SDS011;5107;48.850;8.924;2023-05-17T13:44:45;5.23;;;3.33;;
10134;SDS011;5107;48.850;8.924;2023-05-17T13:47:11;7.47;;;3.50;;
10134;SDS011;5107;48.850;8.924;2023-05-17T13:49:36;6.30;;;3.23;;
10134;SDS011;5107;48.850;8.924;2023-05-17T13:52:01;5.67;;;3.70;;
10134;SDS011;5107;48.850;8.924;2023-05-17T13:54:27;5.00;;;3.03;;
10134;SDS011;5107;48.850;8.924;2023-05-17T13:56:53;5.00;;;3.20;;
10134;SDS011;5107;48.850;8.924;2023-05-17T13:59:19;4.87;;;3.13;;
10134;SDS011;5107;48.850;8.924;2023-05-17T14:01:45;4.80;;;3.23;;
10134;SDS011;5107;48.850;8.924;2023-05-17T14:04:10;6.03;;;3.20;;
10134;SDS011;5107;48.850;8.924;2023-05-17T14:06:37;4.17;;;3.33;;
10134;SDS011;5107;48.850;8.924;2023-05-17T14:09:02;5.30;;;3.10;;
10134;SDS011;5107;48.850;8.924;2023-05-17T14:11:28;7.93;;;3.47;;
10134;SDS011;5107;48.850;8.924;2023-05-17T14:13:53;4.10;;;3.20;;
10134;SDS011;5107;48.850;8.924;2023-05-17T14:16:19;4.87;;;3.20;;
10134;SDS011;5107;48.850;8.924;2023-05-17T14:18:46;5.43;;;3.40;;
10134;SDS011;5107;48.850;8.924;2023-05-17T14:21:11;5.80;;;3.03;;
10134;SDS011;5107;48.850;8.924;2023-05-17T14:23:36;6.13;;;3.40;;
10134;SDS011;5107;48.850;8.924;2023-05-17T14:26:02;6.93;;;3.27;;
10134;SDS011;5107;48.850;8.924;2023-05-17T14:28:31;5.07;;;3.40;;
10134;SDS011;5107;48.850;8.924;2023-05-17T14:30:57;5.23;;;3.50;;
10134;SDS011;5107;48.850;8.924;2023-05-17T14:33:22;3.70;;;3.00;;
10134;SDS011;5107;48.850;8.924;2023-05-17T14:35:47;6.43;;;3.20;;
10134;SDS011;5107;48.850;8.924;2023-05-17T14:38:13;7.13;;;3.33;;
10134;SDS011;5107;48.850;8.924;2023-05-17T14:40:38;4.93;;;3.23;;
10134;SDS011;5107;48.850;8.924;2023-05-17T14:43:03;5.77;;;3.13;;
10134;SDS011;5107;48.850;8.924;2023-05-17T14:45:29;5.27;;;3.57;;
10134;SDS011;5107;48.850;8.924;2023-05-17T14:47:54;4.57;;;3.40;;
10134;SDS011;5107;48.850;8.924;2023-05-17T14:50:19;5.63;;;3.13;;
10134;SDS011;5107;48.850;8.924;2023-05-17T14:52:45;6.27;;;3.10;;
10134;SDS011;5107;48.850;8.924;2023-05-17T14:55:10;5.33;;;3.30;;
10134;SDS011;5107;48.850;8.924;2023-05-17T14:57:52;5.80;;;3.30;;
10134;SDS011;5107;48.850;8.924;2023-05-17T15:00:19;6.27;;;3.60;;
10134;SDS011;5107;48.850;8.924;2023-05-17T15:02:46;5.17;;;3.57;;
10134;SDS011;5107;48.850;8.924;2023-05-17T15:05:11;5.70;;;3.10;;
10134;SDS011;5107;48.850;8.924;2023-05-17T15:07:37;5.37;;;3.43;;
10134;SDS011;5107;48.850;8.924;2023-05-17T15:10:02;3.93;;;2.97;;
10134;SDS011;5107;48.850;8.924;2023-05-17T15:12:29;4.53;;;3.10;;
10134;SDS011;5107;48.850;8.924;2023-05-17T15:14:55;6.63;;;3.80;;
10134;SDS011;5107;48.850;8.924;2023-05-17T15:17:21;7.00;;;3.70;;
10134;SDS011;5107;48.850;8.924;2023-05-17T15:19:47;6.00;;;4.80;;
10134;SDS011;5107;48.850;8.924;2023-05-17T15:22:12;5.30;;;3.80;;
10134;SDS011;5107;48.850;8.924;2023-05-17T15:24:38;4.83;;;3.20;;
10134;SDS011;5107;48.850;8.924;2023-05-17T15:27:04;5.63;;;3.23;;
10134;SDS011;5107;48.850;8.924;2023-05-17T15:29:30;4.23;;;3.20;;
10134;SDS011;5107;48.850;8.924;2023-05-17T15:31:56;7.37;;;3.50;;
10134;SDS011;5107;48.850;8.924;2023-05-17T15:34:23;4.97;;;3.30;;
10134;SDS011;5107;48.850;8.924;2023-05-17T15:36:50;4.57;;;3.57;;
10134;SDS011;5107;48.850;8.924;2023-05-17T15:39:16;5.53;;;3.57;;
10134;SDS011;5107;48.850;8.924;2023-05-17T15:41:41;5.10;;;3.20;;
10134;SDS011;5107;48.850;8.924;2023-05-17T15:44:09;4.73;;;3.43;;
10134;SDS011;5107;48.850;8.924;2023-05-17T15:46:35;4.23;;;3.33;;
10134;SDS011;5107;48.850;8.924;2023-05-17T15:49:00;4.30;;;3.23;;